createdAt,value
2022-09-06T00:01:11.667Z,17.89
2022-09-06T00:03:41.236Z,17.75
2022-09-06T00:06:10.703Z,17.81
2022-09-06T00:08:38.741Z,17.81
2022-09-06T00:11:06.943Z,17.81
2022-09-06T00:13:35.179Z,17.78
2022-09-06T00:16:08.620Z,17.79
2022-09-06T00:18:37.070Z,17.77
2022-09-06T00:21:13.957Z,17.78
2022-09-06T00:23:41.771Z,17.79
2022-09-06T00:26:09.352Z,17.81
2022-09-06T00:28:36.980Z,17.78
2022-09-06T00:31:10.215Z,17.68
2022-09-06T00:33:38.153Z,17.71
2022-09-06T00:36:07.740Z,17.71
2022-09-06T00:38:35.758Z,17.73
2022-09-06T00:41:03.810Z,17.70
2022-09-06T00:43:31.463Z,17.70
2022-09-06T00:45:59.581Z,17.66
2022-09-06T00:48:27.430Z,17.66
2022-09-06T00:50:59.699Z,17.68
2022-09-06T00:53:28.966Z,17.69
2022-09-06T00:55:56.978Z,17.68
2022-09-06T00:58:25.828Z,17.68
2022-09-06T01:00:53.680Z,17.67
2022-09-06T01:03:22.711Z,17.63
2022-09-06T01:06:01.436Z,17.58
2022-09-06T01:08:40.854Z,17.60
2022-09-06T01:11:27.985Z,17.59
2022-09-06T01:14:05.058Z,17.52
2022-09-06T01:16:40.220Z,17.48
2022-09-06T01:19:33.981Z,17.40
2022-09-06T01:22:15.269Z,17.47
2022-09-06T01:25:05.175Z,17.50
2022-09-06T01:28:18.695Z,17.45
2022-09-06T01:30:52.091Z,17.51
2022-09-06T01:33:25.653Z,17.47
2022-09-06T01:35:59.381Z,17.49
2022-09-06T01:38:27.115Z,17.46
2022-09-06T01:40:54.778Z,17.46
2022-09-06T01:43:27.650Z,17.47
2022-09-06T01:46:04.246Z,17.47
2022-09-06T01:48:45.062Z,17.50
2022-09-06T01:51:22.333Z,17.46
2022-09-06T01:54:10.867Z,17.45
2022-09-06T01:56:44.368Z,17.45
2022-09-06T01:59:34.839Z,17.43
2022-09-06T02:02:08.486Z,17.41
2022-09-06T02:04:43.735Z,17.41
2022-09-06T02:07:17.415Z,17.40
2022-09-06T02:09:49.670Z,17.41
2022-09-06T02:12:19.727Z,17.38
2022-09-06T02:14:53.899Z,17.40
2022-09-06T02:17:26.914Z,17.36
2022-09-06T02:19:57.898Z,17.31
2022-09-06T02:22:32.958Z,17.31
2022-09-06T02:25:02.161Z,17.26
2022-09-06T02:27:31.112Z,17.23
2022-09-06T02:30:02.955Z,17.22
2022-09-06T02:32:33.836Z,17.17
2022-09-06T02:35:09.778Z,17.22
2022-09-06T02:37:37.407Z,17.12
2022-09-06T02:40:06.256Z,17.09
2022-09-06T02:42:34.253Z,17.15
2022-09-06T02:45:03.400Z,17.15
2022-09-06T02:47:31.169Z,17.20
2022-09-06T02:49:58.765Z,17.23
2022-09-06T02:52:26.347Z,17.24
2022-09-06T02:54:54.033Z,17.20
2022-09-06T02:57:21.609Z,17.19
2022-09-06T02:59:49.204Z,17.14
2022-09-06T03:02:18.304Z,17.13
2022-09-06T03:04:45.993Z,17.15
2022-09-06T03:07:13.593Z,17.06
2022-09-06T03:09:41.707Z,17.07
2022-09-06T03:12:09.729Z,17.09
2022-09-06T03:14:37.342Z,17.06
2022-09-06T03:17:05.407Z,17.02
2022-09-06T03:19:34.376Z,16.99
2022-09-06T03:22:01.956Z,16.99
2022-09-06T03:24:29.546Z,17.00
2022-09-06T03:26:57.100Z,17.00
2022-09-06T03:29:24.719Z,17.02
2022-09-06T03:31:52.430Z,17.03
2022-09-06T03:34:20.121Z,17.04
2022-09-06T03:36:49.053Z,17.05
2022-09-06T03:39:16.683Z,17.01
2022-09-06T03:41:44.253Z,16.99
2022-09-06T03:44:11.893Z,17.00
2022-09-06T03:46:40.123Z,17.01
2022-09-06T03:49:10.176Z,16.99
2022-09-06T03:51:37.769Z,17.01
2022-09-06T03:54:07.351Z,17.00
2022-09-06T03:56:35.067Z,16.99
2022-09-06T03:59:02.702Z,16.97
2022-09-06T04:01:30.333Z,17.00
2022-09-06T04:03:57.929Z,17.02
2022-09-06T04:06:25.499Z,17.01
2022-09-06T04:08:53.141Z,17.04
2022-09-06T04:11:22.132Z,17.03
2022-09-06T04:13:49.785Z,16.97
2022-09-06T04:16:18.644Z,17.00
2022-09-06T04:18:46.341Z,17.02
2022-09-06T04:21:13.927Z,17.02
2022-09-06T04:23:41.678Z,16.99
2022-09-06T04:26:09.310Z,16.99
2022-09-06T04:28:38.282Z,16.95
2022-09-06T04:31:06.309Z,16.94
2022-09-06T04:33:35.846Z,16.99
2022-09-06T04:36:05.310Z,16.96
2022-09-06T04:38:37.052Z,16.94
2022-09-06T04:41:05.071Z,17.00
2022-09-06T04:43:33.293Z,17.04
2022-09-06T04:46:06.209Z,17.01
2022-09-06T04:48:33.910Z,17.06
2022-09-06T04:51:01.535Z,17.08
2022-09-06T04:53:29.247Z,17.06
2022-09-06T04:55:58.108Z,17.08
2022-09-06T04:58:26.306Z,17.09
2022-09-06T05:00:54.167Z,17.00
2022-09-06T05:03:23.146Z,17.02
2022-09-06T05:05:50.712Z,16.98
2022-09-06T05:08:18.827Z,17.04
2022-09-06T05:10:46.411Z,17.03
2022-09-06T05:13:14.051Z,17.05
2022-09-06T05:15:41.720Z,17.00
2022-09-06T05:18:12.869Z,17.04
2022-09-06T05:20:44.499Z,17.11
2022-09-06T05:23:12.110Z,17.12
2022-09-06T05:25:39.686Z,17.12
2022-09-06T05:28:07.263Z,17.10
2022-09-06T05:30:34.860Z,17.13
2022-09-06T05:33:02.503Z,17.07
2022-09-06T05:35:30.150Z,17.08
2022-09-06T05:37:59.217Z,17.04
2022-09-06T05:40:26.785Z,17.11
2022-09-06T05:42:54.423Z,17.12
2022-09-06T05:45:22.075Z,17.13
2022-09-06T05:47:49.748Z,17.14
2022-09-06T05:50:17.559Z,17.15
2022-09-06T05:52:45.160Z,17.19
2022-09-06T05:55:14.242Z,17.11
2022-09-06T05:57:41.854Z,17.12
2022-09-06T06:00:12.274Z,17.19
2022-09-06T06:02:40.630Z,17.30
2022-09-06T06:05:09.178Z,17.23
2022-09-06T06:07:36.743Z,17.30
2022-09-06T06:10:04.820Z,17.33
2022-09-06T06:12:33.910Z,17.29
2022-09-06T06:15:01.509Z,17.31
2022-09-06T06:17:29.087Z,17.37
2022-09-06T06:19:56.666Z,17.34
2022-09-06T06:22:24.244Z,17.29
2022-09-06T06:24:51.835Z,17.34
2022-09-06T06:27:19.444Z,17.33
2022-09-06T06:29:48.456Z,17.30
2022-09-06T06:32:16.169Z,17.32
2022-09-06T06:34:44.051Z,17.34
2022-09-06T06:37:11.629Z,17.33
2022-09-06T06:39:39.294Z,17.30
2022-09-06T06:42:07.163Z,17.33
2022-09-06T06:44:34.766Z,17.34
2022-09-06T06:47:03.724Z,17.40
2022-09-06T06:49:31.402Z,17.44
2022-09-06T06:51:59.174Z,17.59
2022-09-06T06:54:26.780Z,17.68
2022-09-06T06:56:54.361Z,17.74
2022-09-06T06:59:21.990Z,17.91
2022-09-06T07:01:50.732Z,17.93
2022-09-06T07:04:19.734Z,18.03
2022-09-06T07:12:24.862Z,18.17
2022-09-06T07:14:52.549Z,18.30
2022-09-06T07:17:20.326Z,18.25
2022-09-06T07:22:36.949Z,18.26
2022-09-06T07:25:05.189Z,18.33
2022-09-06T07:27:49.337Z,18.33
2022-09-06T07:30:19.555Z,18.33
2022-09-06T07:32:47.183Z,18.42
2022-09-06T07:35:16.339Z,18.42
2022-09-06T07:37:44.001Z,18.43
2022-09-06T07:40:12.392Z,18.55
2022-09-06T07:42:40.097Z,18.63
2022-09-06T07:45:08.612Z,18.73
2022-09-06T07:53:16.628Z,18.77
2022-09-06T07:55:47.114Z,18.76
2022-09-06T07:58:15.361Z,18.87
2022-09-06T08:00:43.015Z,18.82
2022-09-06T08:03:10.715Z,18.73
2022-09-06T08:11:15.103Z,18.82
2022-09-06T08:13:43.360Z,18.89
2022-09-06T08:16:12.510Z,19.19
2022-09-06T08:18:40.197Z,19.14
2022-09-06T08:21:12.636Z,19.33
2022-09-06T08:23:42.714Z,19.16
2022-09-06T08:26:10.312Z,19.12
2022-09-06T08:28:37.960Z,19.17
2022-09-06T08:31:10.812Z,19.17
2022-09-06T08:33:39.612Z,19.24
2022-09-06T08:36:08.168Z,19.23
2022-09-06T08:38:37.858Z,19.17
2022-09-06T08:41:10.495Z,19.25
2022-09-06T08:43:40.069Z,19.33
2022-09-06T08:46:10.150Z,19.47
2022-09-06T08:48:39.944Z,19.63
2022-09-06T08:51:28.752Z,19.57
2022-09-06T08:54:07.242Z,19.55
2022-09-06T08:56:39.790Z,19.60
2022-09-06T08:59:12.759Z,19.58
2022-09-06T09:01:53.180Z,19.82
2022-09-06T09:04:25.483Z,19.75
2022-09-06T09:06:59.254Z,19.80
2022-09-06T09:09:31.224Z,19.89
2022-09-06T09:12:00.479Z,20.30
2022-09-06T09:14:30.989Z,20.09
2022-09-06T09:17:07.224Z,20.13
2022-09-06T09:19:37.675Z,20.09
2022-09-06T09:22:05.447Z,20.43
2022-09-06T09:24:36.412Z,20.58
2022-09-06T09:27:08.627Z,20.79
2022-09-06T09:32:47.536Z,20.67
2022-09-06T09:35:24.372Z,20.84
2022-09-06T09:38:08.064Z,20.99
2022-09-06T09:40:43.423Z,21.06
2022-09-06T09:43:18.906Z,20.81
2022-09-06T09:45:47.673Z,21.27
2022-09-06T09:48:22.397Z,21.31
2022-09-06T09:50:50.093Z,21.33
2022-09-06T09:53:22.256Z,21.36
2022-09-06T09:55:56.978Z,21.39
2022-09-06T09:58:34.257Z,21.48
2022-09-06T10:01:14.042Z,21.43
2022-09-06T10:09:21.942Z,21.85
2022-09-06T10:11:55.330Z,22.09
2022-09-06T10:14:31.767Z,21.96
2022-09-06T10:17:00.848Z,22.20
2022-09-06T10:19:40.848Z,22.36
2022-09-06T10:22:24.574Z,22.33
2022-09-06T10:25:10.035Z,22.09
2022-09-06T10:28:01.624Z,22.43
2022-09-06T10:30:40.573Z,22.53
2022-09-06T10:33:19.591Z,22.48
2022-09-06T10:35:47.177Z,22.48
2022-09-06T10:38:30.523Z,22.76
2022-09-06T10:41:07.214Z,22.68
2022-09-06T10:43:42.687Z,23.05
2022-09-06T10:46:16.021Z,22.91
2022-09-06T10:48:46.896Z,22.81
2022-09-06T10:51:22.988Z,23.24
2022-09-06T10:53:54.850Z,23.72
2022-09-06T10:56:26.601Z,23.66
2022-09-06T11:02:03.715Z,23.31
2022-09-06T11:07:30.036Z,23.75
2022-09-06T11:10:02.940Z,23.92
2022-09-06T11:12:38.492Z,24.12
2022-09-06T11:15:12.637Z,23.73
2022-09-06T11:17:47.053Z,23.55
2022-09-06T11:20:21.229Z,23.98
2022-09-06T11:23:12.359Z,24.11
2022-09-06T11:26:06.293Z,23.80
2022-09-06T11:28:40.234Z,23.98
2022-09-06T11:34:08.552Z,24.33
2022-09-06T11:36:38.582Z,24.47
2022-09-06T11:39:09.536Z,24.47
2022-09-06T11:41:40.718Z,24.11
2022-09-06T11:44:10.155Z,23.93
2022-09-06T11:47:02.054Z,23.79
2022-09-06T11:49:33.223Z,23.76
2022-09-06T11:52:01.357Z,24.22
2022-09-06T11:54:47.631Z,24.89
2022-09-06T11:57:21.752Z,24.90
2022-09-06T11:59:57.361Z,24.87
2022-09-06T12:02:35.209Z,24.33
2022-09-06T12:05:18.655Z,24.25
2022-09-06T12:08:23.846Z,24.46
2022-09-06T12:11:07.789Z,24.26
2022-09-06T12:13:48.861Z,24.12
2022-09-06T12:16:18.770Z,24.15
2022-09-06T12:19:01.419Z,24.54
2022-09-06T12:21:56.052Z,24.68
2022-09-06T12:24:53.222Z,24.38
2022-09-06T12:27:23.358Z,24.54
2022-09-06T12:29:58.468Z,24.47
2022-09-06T12:32:36.793Z,24.14
2022-09-06T12:37:58.753Z,24.31
2022-09-06T12:40:29.445Z,24.37
2022-09-06T12:42:59.258Z,24.19
2022-09-06T12:45:27.759Z,24.30
2022-09-06T12:48:08.576Z,24.37
2022-09-06T12:50:36.629Z,24.47
2022-09-06T12:53:19.491Z,24.21
2022-09-06T12:55:50.328Z,24.15
2022-09-06T12:58:29.686Z,24.16
2022-09-06T13:01:03.963Z,24.28
2022-09-06T13:03:41.126Z,24.60
2022-09-06T13:06:12.788Z,24.45
2022-09-06T13:08:45.516Z,24.54
2022-09-06T13:11:16.344Z,24.66
2022-09-06T13:13:49.798Z,24.72
2022-09-06T13:16:26.282Z,24.67
2022-09-06T13:18:54.735Z,24.80
2022-09-06T13:21:28.798Z,24.61
2022-09-06T13:23:59.024Z,24.91
2022-09-06T13:26:34.749Z,25.19
2022-09-06T13:29:23.222Z,25.15
2022-09-06T13:31:53.049Z,25.16
2022-09-06T13:34:25.071Z,24.89
2022-09-06T13:36:54.257Z,25.35
2022-09-06T13:39:33.576Z,25.14
2022-09-06T13:42:04.312Z,25.01
2022-09-06T13:44:34.673Z,25.02
2022-09-06T13:47:02.568Z,25.22
2022-09-06T13:49:30.977Z,25.42
2022-09-06T13:52:01.257Z,25.29
2022-09-06T13:54:29.644Z,25.00
2022-09-06T13:56:57.596Z,25.23
2022-09-06T13:59:26.144Z,25.29
2022-09-06T14:02:01.513Z,25.08
2022-09-06T14:04:29.775Z,25.10
2022-09-06T14:06:57.468Z,25.39
2022-09-06T14:09:25.250Z,25.62
2022-09-06T14:11:52.861Z,25.45
2022-09-06T14:14:21.632Z,25.47
2022-09-06T14:16:49.282Z,25.23
2022-09-06T14:19:18.534Z,25.28
2022-09-06T14:21:46.261Z,25.49
2022-09-06T14:24:13.902Z,25.44
2022-09-06T14:26:41.664Z,25.55
2022-09-06T14:29:09.319Z,25.76
2022-09-06T14:31:37.006Z,25.85
2022-09-06T14:34:04.968Z,25.54
2022-09-06T14:36:34.596Z,25.48
2022-09-06T14:39:03.009Z,25.36
2022-09-06T14:41:30.671Z,25.29
2022-09-06T14:43:59.264Z,25.61
2022-09-06T14:46:28.361Z,25.68
2022-09-06T14:49:01.140Z,25.73
2022-09-06T14:51:30.254Z,25.42
2022-09-06T14:54:02.470Z,25.21
2022-09-06T14:56:30.367Z,25.37
2022-09-06T14:58:59.855Z,25.69
2022-09-06T15:01:32.912Z,25.73
2022-09-06T15:04:05.586Z,25.65
2022-09-06T15:06:36.498Z,25.66
2022-09-06T15:09:06.557Z,25.50
2022-09-06T15:11:35.921Z,25.43
2022-09-06T15:14:04.963Z,25.55
2022-09-06T15:16:34.276Z,25.41
2022-09-06T15:19:02.794Z,25.78
2022-09-06T15:21:33.325Z,25.41
2022-09-06T15:24:02.033Z,25.53
2022-09-06T15:26:31.381Z,25.44
2022-09-06T15:28:59.040Z,25.57
2022-09-06T15:31:27.347Z,25.69
2022-09-06T15:33:55.538Z,25.50
2022-09-06T15:36:23.138Z,25.57
2022-09-06T15:38:53.846Z,25.45
2022-09-06T15:41:25.198Z,25.41
2022-09-06T15:43:56.783Z,25.47
2022-09-06T15:46:43.593Z,25.44
2022-09-06T15:49:13.736Z,25.49
2022-09-06T15:51:42.236Z,25.43
2022-09-06T15:54:11.987Z,25.37
2022-09-06T15:56:39.868Z,25.45
2022-09-06T15:59:09.246Z,25.41
2022-09-06T16:01:37.079Z,25.72
2022-09-06T16:04:06.690Z,25.64
2022-09-06T16:06:36.919Z,25.67
2022-09-06T16:09:06.745Z,25.66
2022-09-06T16:11:36.592Z,25.55
2022-09-06T16:14:05.657Z,25.46
2022-09-06T16:16:35.228Z,25.56
2022-09-06T16:19:03.315Z,25.44
2022-09-06T16:21:33.119Z,25.51
2022-09-06T16:24:02.793Z,25.60
2022-09-06T16:26:33.912Z,25.59
2022-09-06T16:29:02.469Z,25.37
2022-09-06T16:31:30.666Z,25.20
2022-09-06T16:33:59.621Z,25.27
2022-09-06T16:36:28.504Z,25.26
2022-09-06T16:38:57.673Z,25.28
2022-09-06T16:41:28.671Z,25.30
2022-09-06T16:43:56.581Z,25.24
2022-09-06T16:46:28.780Z,25.24
2022-09-06T16:48:57.927Z,25.12
2022-09-06T16:51:27.576Z,25.06
2022-09-06T16:53:55.885Z,24.94
2022-09-06T16:56:25.343Z,24.96
2022-09-06T16:58:55.086Z,24.99
2022-09-06T17:01:23.355Z,24.90
2022-09-06T17:03:51.845Z,24.61
2022-09-06T17:06:20.110Z,24.48
2022-09-06T17:08:49.128Z,24.25
2022-09-06T17:11:18.758Z,24.22
2022-09-06T17:13:49.328Z,24.09
2022-09-06T17:16:35.715Z,23.89
2022-09-06T17:19:03.454Z,23.66
2022-09-06T17:21:31.296Z,23.61
2022-09-06T17:24:05.110Z,23.53
2022-09-06T17:26:34.940Z,23.40
2022-09-06T17:29:02.746Z,23.35
2022-09-06T17:31:30.393Z,23.31
2022-09-06T17:33:59.655Z,23.21
2022-09-06T17:36:30.305Z,23.10
2022-09-06T17:39:03.240Z,23.07
2022-09-06T17:41:36.586Z,22.96
2022-09-06T17:44:05.627Z,22.97
2022-09-06T17:46:33.609Z,22.91
2022-09-06T17:49:01.371Z,22.87
2022-09-06T17:51:29.285Z,22.78
2022-09-06T17:53:56.960Z,22.69
2022-09-06T17:56:26.291Z,22.54
2022-09-06T17:58:55.312Z,22.64
2022-09-06T18:01:25.651Z,22.64
2022-09-06T18:03:54.257Z,22.63
2022-09-06T18:06:24.011Z,22.61
2022-09-06T18:08:53.936Z,22.54
2022-09-06T18:11:24.279Z,22.53
2022-09-06T18:13:58.450Z,22.49
2022-09-06T18:16:27.915Z,22.46
2022-09-06T18:18:57.194Z,22.41
2022-09-06T18:21:27.222Z,22.38
2022-09-06T18:23:55.595Z,22.33
2022-09-06T18:26:23.668Z,22.30
2022-09-06T18:28:52.931Z,22.25
2022-09-06T18:31:24.020Z,22.23
2022-09-06T18:33:51.990Z,22.20
2022-09-06T18:36:20.781Z,22.14
2022-09-06T18:38:48.553Z,22.09
2022-09-06T18:41:31.201Z,22.07
2022-09-06T18:44:00.449Z,22.01
2022-09-06T18:46:29.996Z,21.87
2022-09-06T18:48:57.668Z,21.90
2022-09-06T18:51:25.634Z,21.86
2022-09-06T18:53:53.741Z,21.84
2022-09-06T18:56:21.424Z,21.77
2022-09-06T18:58:49.420Z,21.74
2022-09-06T19:01:20.075Z,21.76
2022-09-06T19:03:49.139Z,21.66
2022-09-06T19:06:19.395Z,21.62
2022-09-06T19:08:47.988Z,21.64
2022-09-06T19:11:17.600Z,21.58
2022-09-06T19:13:47.148Z,21.61
2022-09-06T19:16:15.165Z,21.55
2022-09-06T19:18:43.141Z,21.45
2022-09-06T19:21:14.274Z,21.46
2022-09-06T19:23:44.829Z,21.46
2022-09-06T19:26:16.949Z,21.40
2022-09-06T19:28:50.177Z,21.32
2022-09-06T19:31:18.641Z,21.30
2022-09-06T19:33:48.306Z,21.26
2022-09-06T19:36:18.616Z,21.26
2022-09-06T19:39:03.086Z,21.21
2022-09-06T19:41:33.292Z,21.20
2022-09-06T19:44:01.686Z,21.13
2022-09-06T19:46:29.329Z,21.09
2022-09-06T19:48:57.264Z,21.05
2022-09-06T19:51:26.244Z,21.03
2022-09-06T19:53:57.312Z,20.99
2022-09-06T19:56:26.486Z,20.94
2022-09-06T19:58:55.644Z,20.90
2022-09-06T20:01:25.176Z,20.85
2022-09-06T20:03:53.508Z,20.81
2022-09-06T20:06:22.381Z,20.76
2022-09-06T20:08:52.977Z,20.74
2022-09-06T20:11:23.022Z,20.68
2022-09-06T20:13:50.654Z,20.70
2022-09-06T20:16:20.865Z,20.57
2022-09-06T20:18:48.962Z,20.57
2022-09-06T20:21:18.378Z,20.56
2022-09-06T20:23:51.428Z,20.55
2022-09-06T20:26:19.788Z,20.51
2022-09-06T20:28:48.839Z,20.49
2022-09-06T20:31:18.617Z,20.44
2022-09-06T20:33:49.685Z,20.38
2022-09-06T20:36:18.974Z,20.32
2022-09-06T20:38:48.342Z,20.28
2022-09-06T20:41:18.942Z,20.23
2022-09-06T20:43:51.331Z,20.21
2022-09-06T20:46:20.963Z,20.18
2022-09-06T20:48:48.881Z,20.13
2022-09-06T20:51:19.400Z,20.12
2022-09-06T20:53:49.032Z,20.04
2022-09-06T20:56:20.170Z,20.02
2022-09-06T20:58:52.099Z,20.05
2022-09-06T21:01:22.811Z,19.99
2022-09-06T21:03:52.349Z,20.00
2022-09-06T21:06:21.342Z,19.93
2022-09-06T21:08:50.345Z,19.91
2022-09-06T21:11:20.035Z,19.87
2022-09-06T21:13:49.969Z,19.82
2022-09-06T21:16:21.824Z,19.78
2022-09-06T21:18:52.467Z,19.76
2022-09-06T21:21:20.045Z,19.74
2022-09-06T21:23:47.610Z,19.69
2022-09-06T21:26:17.174Z,19.67
2022-09-06T21:28:47.603Z,19.68
2022-09-06T21:31:16.989Z,19.71
2022-09-06T21:33:46.215Z,19.66
2022-09-06T21:36:15.100Z,19.61
2022-09-06T21:38:45.305Z,19.57
2022-09-06T21:41:13.772Z,19.58
2022-09-06T21:43:41.794Z,19.59
2022-09-06T21:46:13.160Z,19.36
2022-09-06T21:48:42.519Z,19.51
2022-09-06T21:51:12.956Z,19.59
2022-09-06T21:53:41.223Z,19.48
2022-09-06T21:56:08.991Z,19.49
2022-09-06T21:58:36.827Z,19.51
2022-09-06T22:01:05.069Z,19.47
2022-09-06T22:03:36.282Z,19.46
2022-09-06T22:06:09.601Z,19.48
2022-09-06T22:08:37.249Z,19.41
2022-09-06T22:11:09.896Z,19.38
2022-09-06T22:13:37.497Z,19.34
2022-09-06T22:16:08.062Z,19.31
2022-09-06T22:18:37.771Z,19.31
2022-09-06T22:21:08.486Z,19.30
2022-09-06T22:23:36.553Z,19.27
2022-09-06T22:26:06.073Z,19.23
2022-09-06T22:28:34.509Z,19.26
2022-09-06T22:31:02.455Z,19.23
2022-09-06T22:33:30.308Z,19.16
2022-09-06T22:36:00.492Z,19.14
2022-09-06T22:38:28.667Z,19.10
2022-09-06T22:40:57.145Z,19.08
2022-09-06T22:43:25.392Z,19.10
2022-09-06T22:45:53.279Z,19.11
2022-09-06T22:48:21.007Z,19.06
2022-09-06T22:50:48.658Z,19.04
2022-09-06T22:53:17.765Z,19.05
2022-09-06T22:55:48.182Z,19.02
2022-09-06T22:58:15.770Z,19.00
2022-09-06T23:00:43.430Z,18.97
2022-09-06T23:03:11.258Z,18.96
2022-09-06T23:05:38.842Z,18.95
2022-09-06T23:08:06.486Z,18.96
2022-09-06T23:10:40.606Z,18.94
2022-09-06T23:15:40.816Z,18.88
2022-09-06T23:18:08.831Z,18.89
2022-09-06T23:20:37.140Z,18.87
2022-09-06T23:23:04.867Z,18.86
2022-09-06T23:25:32.783Z,18.83
2022-09-06T23:28:01.778Z,18.79
2022-09-06T23:30:29.440Z,18.82
2022-09-06T23:32:56.998Z,18.77
2022-09-06T23:35:24.900Z,18.75
2022-09-06T23:37:53.421Z,18.74
2022-09-06T23:40:21.162Z,18.71
2022-09-06T23:42:48.816Z,18.66
2022-09-06T23:45:17.745Z,18.64
2022-09-06T23:47:45.310Z,18.64
2022-09-06T23:50:12.930Z,18.60
2022-09-06T23:52:40.502Z,18.61
2022-09-06T23:55:09.327Z,18.58
2022-09-06T23:57:36.944Z,18.59
